Time;durP1;ratioP1;P1;durP2;ratioP2;P2;SDS_P1;SDS_P2;PMS_P1;PMS_P2;Temp;Humidity;BMP_temperature;BMP_pressure;BME280_temperature;BME280_humidity;BME280_pressure;Samples;Min_cycle;Max_cycle;Signal;HPM_P1;HPM_P2
2023/10/20 00:00:15;;;;;;;12.73;11.73;;;;;;;14.18;95.04;95270.06;5061108;28;20305;-73
2023/10/20 00:02:42;;;;;;;12.13;11.23;;;;;;;14.16;95.05;95280.44;5067061;28;20495;-73
2023/10/20 00:05:11;;;;;;;14.90;13.73;;;;;;;14.15;94.94;95248.91;5063594;28;20554;-74
2023/10/20 00:07:37;;;;;;;14.87;13.70;;;;;;;14.24;94.77;95247.94;5065644;28;20896;-74
2023/10/20 00:10:05;;;;;;;15.97;14.77;;;;;;;14.38;93.95;95248.81;5063870;28;20546;-73
2023/10/20 00:12:32;;;;;;;15.00;13.80;;;;;;;14.45;93.46;95253.94;5060953;28;20565;-73
2023/10/20 00:14:59;;;;;;;14.33;13.20;;;;;;;14.40;93.54;95246.63;5066167;28;20446;-74
2023/10/20 00:17:25;;;;;;;13.50;12.50;;;;;;;14.19;94.08;95239.06;5065081;28;21125;-73
2023/10/20 00:19:53;;;;;;;14.03;13.00;;;;;;;14.17;95.08;95255.66;5062993;28;20535;-73
2023/10/20 00:22:22;;;;;;;13.50;12.50;;;;;;;14.16;94.87;95250.53;5063560;28;20475;-73
2023/10/20 00:24:48;;;;;;;14.40;13.30;;;;;;;14.10;95.62;95250.59;5066022;28;20510;-73
2023/10/20 00:27:15;;;;;;;16.00;14.50;;;;;;;14.17;94.73;95250.22;5065975;28;20450;-74
2023/10/20 00:29:42;;;;;;;14.70;13.60;;;;;;;14.21;94.31;95248.53;5063047;28;20490;-75
2023/10/20 00:32:10;;;;;;;14.80;13.70;;;;;;;14.12;94.87;95248.38;5059898;28;20872;-74
2023/10/20 00:34:37;;;;;;;14.43;13.30;;;;;;;14.21;94.25;95243.09;5066303;28;20455;-74
2023/10/20 00:37:04;;;;;;;13.73;12.53;;;;;;;14.18;94.31;95253.75;5065906;28;20544;-74
2023/10/20 00:39:34;;;;;;;14.60;13.30;;;;;;;14.20;94.54;95246.91;5065142;28;20458;-74
2023/10/20 00:42:02;;;;;;;15.83;14.53;;;;;;;14.15;94.44;95243.47;5064924;28;20575;-73
2023/10/20 00:44:29;;;;;;;15.83;14.60;;;;;;;14.09;95.11;95229.13;5066473;28;20450;-74
2023/10/20 00:46:56;;;;;;;17.63;16.13;;;;;;;13.99;95.09;95224.63;5063326;28;20466;-73
2023/10/20 00:49:23;;;;;;;18.23;16.73;;;;;;;13.91;95.93;95217.13;5058987;28;20570;-74
2023/10/20 00:51:50;;;;;;;17.90;16.53;;;;;;;14.12;95.15;95207.59;5064975;28;20543;-74
2023/10/20 00:54:17;;;;;;;16.05;14.73;;;;;;;14.12;94.68;95209.50;5064816;28;20537;-75
2023/10/20 00:56:45;;;;;;;17.90;16.30;;;;;;;14.10;94.66;95207.06;5064739;28;20193;-75
2023/10/20 00:59:12;;;;;;;15.80;14.60;;;;;;;14.05;95.59;95207.13;5065038;28;20468;-74
2023/10/20 01:01:39;;;;;;;17.17;15.87;;;;;;;14.06;95.04;95214.19;5059960;28;20478;-74
2023/10/20 01:04:07;;;;;;;18.20;16.70;;;;;;;14.12;94.72;95207.59;5066513;28;20542;-75
2023/10/20 01:06:35;;;;;;;15.83;14.63;;;;;;;14.13;94.25;95211.13;5065351;28;20988;-75
2023/10/20 01:09:03;;;;;;;17.90;16.40;;;;;;;14.09;95.09;95200.00;5058424;28;21062;-75
2023/10/20 01:11:30;;;;;;;18.47;16.93;;;;;;;14.15;94.98;95197.22;5063748;28;20460;-75
2023/10/20 01:14:00;;;;;;;17.80;16.40;;;;;;;14.26;94.01;95191.34;5065265;28;20452;-75
2023/10/20 01:16:27;;;;;;;17.73;16.33;;;;;;;14.22;93.94;95189.50;5064199;28;20498;-74
2023/10/20 01:18:55;;;;;;;15.57;14.27;;;;;;;14.15;94.97;95180.91;5063503;28;20455;-74
2023/10/20 01:21:22;;;;;;;14.57;13.37;;;;;;;14.09;95.59;95180.97;5065000;28;20484;-74
2023/10/20 01:23:54;;;;;;;16.20;15.00;;;;;;;14.12;95.97;95182.28;5065219;28;20457;-74
2023/10/20 01:26:21;;;;;;;14.43;13.33;;;;;;;14.11;95.75;95173.31;5062591;28;20451;-74
2023/10/20 01:28:48;;;;;;;13.93;12.83;;;;;;;14.15;95.71;95170.03;5062687;28;20914;-74
2023/10/20 01:31:14;;;;;;;14.70;13.60;;;;;;;14.12;95.82;95158.63;5063763;28;20466;-74
2023/10/20 01:33:41;;;;;;;13.37;12.40;;;;;;;14.06;95.92;95154.34;5062619;28;20800;-74
2023/10/20 01:36:08;;;;;;;13.70;12.60;;;;;;;13.82;98.29;95150.91;5065373;28;20980;-74
2023/10/20 01:38:35;;;;;;;15.63;14.43;;;;;;;14.16;95.43;95136.28;5065146;28;20564;-74
2023/10/20 01:41:03;;;;;;;15.50;14.20;;;;;;;14.17;94.77;95129.72;5059396;28;20459;-74
2023/10/20 01:43:31;;;;;;;14.27;13.13;;;;;;;14.18;94.19;95117.75;5069550;28;21452;-74
2023/10/20 01:45:57;;;;;;;12.50;11.50;;;;;;;13.95;94.68;95103.97;5068521;28;20451;-74
2023/10/20 01:48:24;;;;;;;10.00;9.20;;;;;;;14.07;93.99;95107.03;5069322;28;20573;-74
2023/10/20 01:50:51;;;;;;;9.23;8.35;;;;;;;14.01;94.21;95113.63;5068616;28;20542;-74
2023/10/20 01:53:18;;;;;;;9.53;8.83;;;;;;;14.03;94.21;95095.13;5068390;28;20312;-74
2023/10/20 01:55:49;;;;;;;10.10;9.20;;;;;;;13.99;94.31;95083.22;5064702;28;20548;-75
2023/10/20 01:58:18;;;;;;;10.80;10.00;;;;;;;13.91;94.55;95072.22;5066389;28;20459;-74
2023/10/20 02:00:49;;;;;;;10.30;9.40;;;;;;;13.72;95.29;95062.16;5066280;28;21051;-74
2023/10/20 02:03:15;;;;;;;8.40;7.80;;;;;;;13.86;94.54;95054.09;5068705;28;20474;-74
2023/10/20 02:05:42;;;;;;;6.47;5.90;;;;;;;13.85;93.97;95038.88;5069208;28;20454;-74
2023/10/20 02:08:09;;;;;;;6.40;5.80;;;;;;;14.00;92.49;95025.00;5068115;28;20542;-74
2023/10/20 02:10:36;;;;;;;6.10;5.60;;;;;;;14.06;91.90;95018.38;5058136;28;20263;-74
2023/10/20 02:13:03;;;;;;;5.20;4.90;;;;;;;14.03;92.14;95008.09;5067378;28;20570;-74
2023/10/20 02:15:31;;;;;;;5.22;4.82;;;;;;;14.08;91.45;95010.72;5070938;28;20435;-74
2023/10/20 02:17:58;;;;;;;6.07;5.35;;;;;;;14.08;91.44;94999.84;5069682;28;20202;-74
2023/10/20 02:20:25;;;;;;;5.47;5.03;;;;;;;14.05;90.96;94992.28;5065749;28;20200;-74
2023/10/20 02:22:52;;;;;;;5.07;4.67;;;;;;;14.23;90.93;94989.81;5069308;28;20549;-74
2023/10/20 02:25:19;;;;;;;5.03;4.63;;;;;;;14.17;90.57;94982.84;5067595;28;20831;-74
2023/10/20 02:27:47;;;;;;;5.40;5.00;;;;;;;14.05;90.83;94984.13;5065438;28;20744;-74
2023/10/20 02:30:15;;;;;;;5.47;4.90;;;;;;;14.19;90.18;94970.56;5064898;28;20491;-74
2023/10/20 02:32:44;;;;;;;4.60;4.30;;;;;;;14.28;89.34;94966.06;5067171;28;20567;-74
2023/10/20 02:35:12;;;;;;;5.23;4.83;;;;;;;14.21;90.35;94965.63;5060883;28;20459;-74
2023/10/20 02:37:38;;;;;;;4.83;4.53;;;;;;;14.33;90.13;94946.88;5069745;28;20818;-73
2023/10/20 02:40:07;;;;;;;5.20;4.80;;;;;;;14.30;90.06;94930.34;5066211;28;20486;-74
2023/10/20 02:42:34;;;;;;;5.77;5.27;;;;;;;14.33;89.46;94935.19;5070236;28;20573;-74
2023/10/20 02:45:01;;;;;;;5.13;4.83;;;;;;;14.11;90.75;94955.75;5062285;28;20895;-74
2023/10/20 02:47:28;;;;;;;5.27;4.90;;;;;;;14.32;89.53;94955.34;5065892;28;20469;-74
2023/10/20 02:49:56;;;;;;;5.13;4.73;;;;;;;14.35;89.34;94954.75;5067620;28;20526;-74
2023/10/20 02:52:24;;;;;;;5.00;4.60;;;;;;;14.36;89.00;94951.72;5063819;28;20475;-73
2023/10/20 02:54:53;;;;;;;5.33;4.93;;;;;;;14.18;90.41;94968.16;5063559;28;20509;-74
2023/10/20 02:57:20;;;;;;;6.27;5.77;;;;;;;14.32;89.84;94964.31;5068025;28;20467;-74
2023/10/20 02:59:48;;;;;;;5.93;5.47;;;;;;;14.13;91.05;94977.22;5068160;28;20448;-75
2023/10/20 03:02:15;;;;;;;6.90;6.40;;;;;;;14.14;90.85;94965.22;5066925;28;20888;-75
2023/10/20 03:04:41;;;;;;;6.73;6.13;;;;;;;14.27;89.87;94960.91;5063045;28;20463;-74
2023/10/20 03:07:10;;;;;;;6.80;6.30;;;;;;;14.15;90.39;94966.84;5069164;28;20538;-74
2023/10/20 03:09:36;;;;;;;7.07;6.57;;;;;;;14.20;90.37;94960.50;5063359;28;21058;-75
2023/10/20 03:12:03;;;;;;;6.80;6.30;;;;;;;14.00;91.15;94976.06;5067039;28;20474;-74
2023/10/20 03:14:31;;;;;;;7.27;6.57;;;;;;;13.96;91.92;94969.63;5064791;28;20458;-74
2023/10/20 03:16:57;;;;;;;8.48;7.75;;;;;;;13.90;92.35;94965.38;5066449;28;20466;-74
2023/10/20 03:19:24;;;;;;;7.50;7.00;;;;;;;13.90;92.96;94959.16;5068850;28;20208;-74
2023/10/20 03:21:52;;;;;;;7.83;7.17;;;;;;;13.85;92.93;94951.88;5065312;28;20223;-73
2023/10/20 03:24:20;;;;;;;8.23;7.60;;;;;;;13.98;92.70;94951.06;5063528;28;20459;-73
2023/10/20 03:26:48;;;;;;;9.20;8.40;;;;;;;13.88;92.70;94936.88;5067956;28;20451;-74
2023/10/20 03:29:15;;;;;;;9.10;8.40;;;;;;;13.73;93.49;94917.00;5062760;28;21084;-74
2023/10/20 03:31:42;;;;;;;9.15;8.40;;;;;;;13.49;94.66;94918.25;5060977;28;20471;-74
2023/10/20 03:34:08;;;;;;;10.57;9.75;;;;;;;13.37;95.60;94910.56;5062413;28;20205;-73
2023/10/20 03:36:35;;;;;;;10.70;9.80;;;;;;;13.33;96.78;94907.63;5061020;28;20571;-73
2023/10/20 03:39:14;;;;;;;9.32;8.55;;;;;;;13.34;96.47;94903.81;5065495;28;20722;-73
2023/10/20 03:41:42;;;;;;;9.30;8.48;;;;;;;13.40;96.56;94908.06;5065296;28;20223;-74
2023/10/20 03:44:09;;;;;;;9.10;8.40;;;;;;;13.38;97.04;94899.41;5064894;28;20283;-75
2023/10/20 03:46:43;;;;;;;9.23;8.43;;;;;;;13.31;97.72;94880.00;5060653;28;20201;-75
2023/10/20 03:49:10;;;;;;;7.97;7.30;;;;;;;13.43;97.20;94872.16;5066722;28;20703;-75
2023/10/20 03:51:37;;;;;;;7.65;7.05;;;;;;;13.43;97.00;94879.50;5067583;28;20273;-75
2023/10/20 03:54:05;;;;;;;7.35;6.65;;;;;;;13.46;96.85;94878.91;5067460;28;20204;-75
2023/10/20 03:56:34;;;;;;;8.10;7.50;;;;;;;13.44;97.52;94867.53;5063531;28;20271;-76
2023/10/20 03:59:02;;;;;;;8.27;7.57;;;;;;;13.47;97.80;94836.25;5062030;28;20993;-74
2023/10/20 04:01:29;;;;;;;6.90;6.30;;;;;;;13.38;97.73;94828.78;5067248;28;20509;-74
2023/10/20 04:03:56;;;;;;;6.80;6.30;;;;;;;13.46;97.44;94824.56;5064603;28;20498;-74
2023/10/20 04:06:23;;;;;;;8.20;6.03;;;;;;;13.33;97.95;94818.00;5061047;28;20663;-71
2023/10/20 04:08:50;;;;;;;5.93;5.43;;;;;;;13.30;97.97;94817.81;5060398;28;20320;-73
2023/10/20 04:11:17;;;;;;;7.15;6.55;;;;;;;13.35;97.88;94813.06;5060924;28;20474;-73
2023/10/20 04:13:44;;;;;;;7.90;7.20;;;;;;;13.27;98.36;94805.63;5063953;28;20253;-73
2023/10/20 04:16:13;;;;;;;7.10;6.50;;;;;;;13.10;99.41;94805.34;5063413;28;21054;-73
2023/10/20 04:18:40;;;;;;;8.18;7.57;;;;;;;13.02;100.00;94789.72;5063365;28;20650;-73
2023/10/20 04:21:06;;;;;;;8.23;7.63;;;;;;;13.17;99.95;94778.66;5061786;28;20252;-73
2023/10/20 04:23:33;;;;;;;7.90;7.20;;;;;;;13.11;100.00;94763.53;5065171;28;20215;-73
2023/10/20 04:26:00;;;;;;;6.57;5.97;;;;;;;13.04;100.00;94755.75;5058726;28;20279;-73
2023/10/20 04:28:32;;;;;;;5.82;5.22;;;;;;;13.15;100.00;94742.00;5064138;28;20204;-74
2023/10/20 04:42:43;;;;;;;6.37;5.80;;;;;;;13.18;100.00;94709.66;5057156;28;20218;-69
2023/10/20 04:45:18;;;;;;;6.30;5.80;;;;;;;13.27;100.00;94707.06;5063225;28;20462;-69
2023/10/20 04:48:14;;;;;;;6.75;6.15;;;;;;;13.16;100.00;94702.91;5062578;28;20212;-68
2023/10/20 04:51:08;;;;;;;7.32;6.72;;;;;;;13.23;99.62;94700.63;5063987;28;20224;-69
2023/10/20 04:53:48;;;;;;;7.80;7.20;;;;;;;13.14;100.00;94686.91;5061662;28;20199;-75
2023/10/20 04:56:37;;;;;;;6.75;6.18;;;;;;;13.13;100.00;94677.13;5049573;28;20243;-75
2023/10/20 04:59:09;;;;;;;7.50;6.40;;;;;;;13.03;100.00;94669.19;5058910;28;20196;-75
2023/10/20 05:01:47;;;;;;;6.97;6.38;;;;;;;13.11;100.00;94649.47;5060347;28;20217;-74
2023/10/20 05:04:21;;;;;;;6.57;6.07;;;;;;;13.05;100.00;94639.81;5064932;28;20730;-74
2023/10/20 05:06:58;;;;;;;8.13;7.03;;;;;;;12.96;100.00;94633.50;5063403;28;20650;-74
2023/10/20 05:09:25;;;;;;;7.93;7.28;;;;;;;12.92;100.00;94636.00;5060304;28;21060;-74
2023/10/20 05:11:53;;;;;;;7.55;6.95;;;;;;;12.89;100.00;94614.09;5058429;28;20220;-75
2023/10/20 05:14:19;;;;;;;8.20;7.40;;;;;;;12.99;100.00;94608.47;5064877;28;20234;-74
2023/10/20 05:16:46;;;;;;;9.07;8.27;;;;;;;12.96;100.00;94598.22;5064690;28;20203;-74
2023/10/20 05:19:13;;;;;;;8.65;7.95;;;;;;;12.89;100.00;94595.91;5070710;28;20196;-74
2023/10/20 05:21:39;;;;;;;8.80;8.00;;;;;;;13.01;100.00;94584.53;5068933;28;20244;-76
2023/10/20 05:24:08;;;;;;;8.55;7.85;;;;;;;13.02;100.00;94564.41;5068622;28;20193;-75
2023/10/20 05:26:35;;;;;;;8.18;7.47;;;;;;;13.10;99.61;94561.00;5065206;28;20675;-75
2023/10/20 05:29:02;;;;;;;7.72;7.20;;;;;;;13.21;98.84;94557.00;5064320;28;20224;-75
2023/10/20 05:31:29;;;;;;;8.85;7.95;;;;;;;13.28;98.34;94553.88;5069006;28;20212;-74
2023/10/20 05:33:57;;;;;;;9.90;9.00;;;;;;;13.34;97.52;94555.34;5068644;28;20200;-74
2023/10/20 05:36:23;;;;;;;9.23;8.43;;;;;;;13.35;97.78;94546.88;5057265;28;20203;-74
2023/10/20 05:38:50;;;;;;;8.45;7.63;;;;;;;13.37;97.25;94549.31;5067589;28;20200;-74
2023/10/20 05:41:18;;;;;;;8.45;7.75;;;;;;;13.53;96.57;94545.16;5063677;28;20307;-74
2023/10/20 05:43:45;;;;;;;8.95;8.25;;;;;;;13.47;96.76;94548.28;5064397;28;20197;-75
2023/10/20 05:46:17;;;;;;;8.77;7.85;;;;;;;13.25;97.93;94530.84;5063907;28;20200;-75
2023/10/20 05:48:44;;;;;;;8.95;8.15;;;;;;;13.34;97.45;94528.19;5068032;28;20200;-74
2023/10/20 05:51:11;;;;;;;8.63;7.82;;;;;;;13.11;98.06;94498.25;5350829;22;20234;-74
2023/10/20 05:53:37;;;;;;;9.20;8.50;;;;;;;13.00;99.38;94471.63;5105725;28;20738;-75
2023/10/20 05:56:05;;;;;;;11.25;9.10;;;;;;;13.03;99.37;94460.16;5097306;28;20195;-75
2023/10/20 05:58:34;;;;;;;10.13;9.32;;;;;;;12.81;100.00;94481.81;5103985;28;20199;-75
2023/10/20 06:01:05;;;;;;;10.38;9.57;;;;;;;12.76;100.00;94491.66;5093527;28;20334;-74
2023/10/20 06:03:32;;;;;;;10.75;9.85;;;;;;;12.88;100.00;94493.06;5078454;28;20703;-74
2023/10/20 06:06:00;;;;;;;11.23;10.13;;;;;;;13.01;100.00;94474.03;5079360;28;20226;-75
2023/10/20 06:08:28;;;;;;;12.80;11.52;;;;;;;13.07;99.41;94459.25;5082388;28;20224;-74
2023/10/20 06:11:00;;;;;;;9.90;8.97;;;;;;;13.12;99.18;94455.63;5071835;28;20319;-74
2023/10/20 06:13:27;;;;;;;9.50;8.80;;;;;;;13.08;99.58;94458.13;5082912;28;20446;-74
2023/10/20 06:15:55;;;;;;;9.43;8.65;;;;;;;13.20;99.14;94449.50;5078068;28;20724;-74
2023/10/20 06:18:22;;;;;;;8.10;7.50;;;;;;;13.21;98.43;94440.25;5074653;28;20679;-75
2023/10/20 06:20:48;;;;;;;8.70;8.00;;;;;;;13.25;98.42;94418.69;5083907;28;20311;-75
2023/10/20 06:23:16;;;;;;;9.20;8.40;;;;;;;13.15;97.56;94414.28;5080265;28;20476;-74
2023/10/20 06:25:43;;;;;;;9.57;8.68;;;;;;;13.20;97.32;94397.91;5081428;28;20537;-75
2023/10/20 06:28:09;;;;;;;8.77;7.97;;;;;;;13.19;96.62;94407.16;5077344;28;20193;-74
2023/10/20 06:30:42;;;;;;;9.33;8.63;;;;;;;13.21;96.43;94402.22;5076648;28;20500;-74
2023/10/20 06:33:17;;;;;;;22.30;20.40;;;;;;;13.31;95.58;94399.25;5076003;28;20542;-74
2023/10/20 06:35:51;;;;;;;10.25;9.45;;;;;;;13.27;94.85;94414.56;5075394;28;20197;-75
2023/10/20 06:38:25;;;;;;;9.43;8.65;;;;;;;13.20;95.45;94407.97;5073553;28;20252;-74
2023/10/20 06:40:51;;;;;;;10.02;9.23;;;;;;;13.23;95.23;94396.47;5072784;28;20243;-75
2023/10/20 06:43:19;;;;;;;9.07;8.20;;;;;;;13.21;95.25;94371.53;5083843;28;20196;-74
2023/10/20 06:45:46;;;;;;;8.63;7.93;;;;;;;13.18;94.46;94377.59;5073266;28;20567;-75
2023/10/20 06:48:16;;;;;;;9.93;9.13;;;;;;;13.26;94.32;94352.41;5076208;28;20291;-75
2023/10/20 06:50:43;;;;;;;8.80;8.10;;;;;;;13.12;94.35;94347.00;5070223;28;20888;-74
2023/10/20 06:53:10;;;;;;;9.23;8.43;;;;;;;13.18;93.90;94353.97;5077130;28;20199;-74
2023/10/20 06:55:36;;;;;;;10.05;9.18;;;;;;;13.17;93.12;94355.06;5077177;28;20198;-74
2023/10/20 06:58:03;;;;;;;9.60;8.60;;;;;;;13.31;92.46;94361.25;5074483;28;20823;-74
2023/10/20 07:00:30;;;;;;;8.57;7.78;;;;;;;13.37;92.59;94343.69;5066563;28;20251;-74
2023/10/20 07:02:57;;;;;;;8.73;7.88;;;;;;;13.63;90.83;94345.75;5079144;28;20672;-74
2023/10/20 07:05:25;;;;;;;9.32;8.55;;;;;;;13.69;91.14;94334.41;5077036;28;20209;-75
2023/10/20 07:07:52;;;;;;;8.27;7.57;;;;;;;13.83;90.22;94339.78;5074324;28;20198;-74
2023/10/20 07:10:21;;;;;;;8.33;7.53;;;;;;;13.60;91.46;94343.66;5079077;28;20486;-74
2023/10/20 07:12:48;;;;;;;9.87;8.17;;;;;;;13.64;91.81;94331.06;5072188;28;20945;-74
2023/10/20 07:15:15;;;;;;;10.65;9.52;;;;;;;13.68;91.57;94338.25;5074356;28;20835;-74
2023/10/20 07:17:42;;;;;;;10.20;9.40;;;;;;;13.65;92.28;94329.91;5075721;28;20880;-75
2023/10/20 07:20:10;;;;;;;11.93;10.63;;;;;;;13.51;92.86;94304.78;5070444;28;20482;-74
2023/10/20 07:22:38;;;;;;;10.18;9.38;;;;;;;13.57;91.83;94303.53;5071521;28;20549;-74
2023/10/20 07:25:05;;;;;;;10.17;9.27;;;;;;;13.61;90.92;94310.75;5080246;28;20196;-74
2023/10/20 07:27:33;;;;;;;11.00;10.07;;;;;;;13.78;90.55;94318.16;5080536;28;20739;-74
2023/10/20 07:30:00;;;;;;;10.30;9.50;;;;;;;13.93;89.57;94320.47;5072907;28;20230;-74
2023/10/20 07:32:26;;;;;;;9.95;9.15;;;;;;;13.90;89.10;94323.81;5071538;28;20196;-74
2023/10/20 07:34:53;;;;;;;9.97;9.17;;;;;;;13.94;88.13;94332.16;5065031;28;20203;-74
2023/10/20 07:37:20;;;;;;;10.65;9.73;;;;;;;13.99;88.40;94321.09;5076947;28;22512;-74
2023/10/20 07:39:50;;;;;;;10.77;9.98;;;;;;;13.88;89.07;94319.81;5068766;28;20671;-74
2023/10/20 07:42:19;;;;;;;9.60;8.80;;;;;;;13.74;88.76;94309.03;5078959;28;20230;-74
2023/10/20 07:44:46;;;;;;;9.65;8.93;;;;;;;13.60;89.23;94321.94;5075107;28;20560;-74
2023/10/20 07:47:13;;;;;;;11.63;10.53;;;;;;;13.89;88.92;94322.22;5070506;28;21322;-74
2023/10/20 07:49:40;;;;;;;11.00;10.10;;;;;;;14.10;88.55;94308.84;5080341;28;20992;-74
2023/10/20 07:52:07;;;;;;;12.37;11.30;;;;;;;14.12;88.03;94298.44;5072425;28;20220;-74
2023/10/20 07:54:34;;;;;;;12.80;11.80;;;;;;;14.12;87.92;94307.41;5076176;28;20551;-74
2023/10/20 07:57:03;;;;;;;13.13;12.03;;;;;;;14.10;88.13;94306.09;5077708;28;20228;-74
2023/10/20 07:59:30;;;;;;;11.97;11.07;;;;;;;14.10;88.83;94314.28;5073773;28;20499;-74
2023/10/20 08:01:58;;;;;;;12.87;11.77;;;;;;;13.87;89.25;94291.81;5068557;28;20478;-75
2023/10/20 08:04:26;;;;;;;12.63;11.53;;;;;;;14.11;87.77;94324.81;5070408;28;20504;-74
2023/10/20 08:06:54;;;;;;;12.43;11.43;;;;;;;14.20;87.77;94316.69;5076267;28;20460;-74
2023/10/20 08:09:21;;;;;;;12.23;11.27;;;;;;;14.32;88.09;94302.47;5073502;28;20454;-74
2023/10/20 08:11:48;;;;;;;14.53;13.23;;;;;;;14.39;87.42;94303.59;5070728;28;20522;-74
2023/10/20 08:14:16;;;;;;;14.70;13.40;;;;;;;14.44;87.27;94310.84;5070893;28;20549;-74
2023/10/20 08:16:43;;;;;;;15.40;14.10;;;;;;;14.35;86.43;94323.59;5078238;28;20442;-74
2023/10/20 08:19:09;;;;;;;13.40;12.30;;;;;;;14.32;86.89;94318.78;5074611;28;20558;-74
2023/10/20 08:21:36;;;;;;;14.23;12.90;;;;;;;14.19;87.17;94320.53;5072777;28;20472;-74
2023/10/20 08:24:04;;;;;;;14.07;12.97;;;;;;;13.90;87.55;94333.88;5076359;28;20498;-71
2023/10/20 08:26:32;;;;;;;15.43;14.03;;;;;;;13.72;87.78;94322.13;5084402;28;20539;-73
2023/10/20 08:28:59;;;;;;;13.82;12.52;;;;;;;14.04;86.96;94326.41;5076139;28;20980;-75
2023/10/20 08:31:27;;;;;;;15.02;13.73;;;;;;;14.04;86.57;94345.44;5072126;28;20313;-74
2023/10/20 08:33:57;;;;;;;14.27;13.17;;;;;;;13.94;85.97;94360.13;5071957;28;20204;-73
2023/10/20 08:36:23;;;;;;;13.88;12.77;;;;;;;13.89;86.57;94349.41;5072977;28;20490;-73
2023/10/20 08:38:51;;;;;;;14.40;13.30;;;;;;;13.86;85.68;94350.03;5068037;28;20200;-73
2023/10/20 08:41:21;;;;;;;13.20;12.10;;;;;;;14.11;85.90;94378.41;5074490;28;20929;-73
2023/10/20 08:43:48;;;;;;;14.03;12.90;;;;;;;14.18;85.17;94378.75;5077227;28;20504;-71
2023/10/20 08:48:53;;;;;;;13.27;12.27;;;;;;;14.60;84.00;94385.47;5287514;22;20491;-73
2023/10/20 08:51:22;;;;;;;14.10;13.00;;;;;;;14.72;84.51;94393.81;5098879;28;20492;-73
2023/10/20 08:53:48;;;;;;;14.93;13.63;;;;;;;14.91;83.59;94390.00;5103122;28;20457;-73
2023/10/20 08:56:16;;;;;;;13.30;12.20;;;;;;;15.04;83.33;94422.50;5105706;28;20533;-74
2023/10/20 08:58:45;;;;;;;14.87;13.67;;;;;;;14.52;84.56;94432.50;5087262;28;20919;-73
2023/10/20 09:01:12;;;;;;;13.90;12.73;;;;;;;14.70;85.48;94477.69;5080077;28;20844;-72
2023/10/20 09:03:40;;;;;;;13.33;12.30;;;;;;;14.83;85.70;94481.44;5075373;28;20458;-73
2023/10/20 09:06:12;;;;;;;12.93;11.83;;;;;;;14.59;83.94;94503.63;5079315;28;20513;-73
2023/10/20 09:08:39;;;;;;;14.17;12.93;;;;;;;14.53;85.36;94499.41;5073819;28;20483;-73
2023/10/20 09:11:09;;;;;;;13.30;12.20;;;;;;;14.45;85.02;94497.47;5078355;28;20888;-74
2023/10/20 09:13:39;;;;;;;11.80;10.80;;;;;;;14.66;86.10;94508.56;5077459;28;20511;-74
2023/10/20 09:16:08;;;;;;;13.00;11.90;;;;;;;14.86;84.16;94512.66;5081063;28;21103;-73
2023/10/20 09:18:43;;;;;;;13.10;12.00;;;;;;;14.69;83.92;94521.56;5080513;28;20890;-73
2023/10/20 09:21:13;;;;;;;13.27;12.17;;;;;;;14.83;84.66;94508.66;5075890;28;20553;-73
2023/10/20 09:23:40;;;;;;;12.43;11.40;;;;;;;14.84;83.45;94498.56;5083919;28;20494;-73
2023/10/20 09:26:07;;;;;;;12.90;11.67;;;;;;;15.11;83.32;94507.28;5077301;28;20453;-74
2023/10/20 09:28:33;;;;;;;14.20;13.00;;;;;;;15.16;83.40;94500.88;5074499;28;20531;-73
2023/10/20 09:31:01;;;;;;;14.67;13.30;;;;;;;15.10;82.82;94480.34;5075625;28;20765;-73
2023/10/20 09:33:28;;;;;;;14.83;13.63;;;;;;;14.97;83.27;94481.28;5091443;28;20439;-73
2023/10/20 09:35:55;;;;;;;13.83;12.73;;;;;;;15.23;82.91;94481.34;5073445;28;20505;-72
2023/10/20 09:38:26;;;;;;;13.60;12.60;;;;;;;15.12;81.68;94508.88;5074613;28;20475;-73
2023/10/20 09:41:05;;;;;;;13.70;12.70;;;;;;;15.02;83.28;94501.00;5073749;28;20488;-73
2023/10/20 09:43:35;;;;;;;14.63;13.47;;;;;;;15.18;83.14;94498.63;5071582;28;20813;-73
2023/10/20 09:46:08;;;;;;;13.70;12.60;;;;;;;15.12;83.56;94502.63;5070195;28;21031;-72
2023/10/20 09:48:38;;;;;;;13.83;12.70;;;;;;;15.47;81.77;94511.66;5071021;28;20478;-72
2023/10/20 09:51:05;;;;;;;15.17;13.97;;;;;;;15.78;80.84;94500.59;5081278;28;20479;-72
2023/10/20 09:53:33;;;;;;;14.80;13.60;;;;;;;15.69;81.12;94529.78;5074260;28;20551;-73
2023/10/20 09:56:01;;;;;;;14.50;13.07;;;;;;;15.75;81.57;94550.31;5070690;28;20589;-72
2023/10/20 09:58:33;;;;;;;14.60;13.40;;;;;;;15.89;81.23;94567.34;5081930;28;21086;-73
2023/10/20 10:01:00;;;;;;;13.90;12.90;;;;;;;16.02;80.13;94579.19;5077734;28;20458;-73
2023/10/20 10:03:28;;;;;;;13.50;12.40;;;;;;;16.12;79.93;94563.31;5073074;28;20454;-72
2023/10/20 10:05:55;;;;;;;14.40;13.30;;;;;;;16.21;79.94;94559.78;5074613;28;21157;-72
2023/10/20 10:08:22;;;;;;;14.53;12.87;;;;;;;16.30;80.03;94566.00;5081202;28;20478;-72
2023/10/20 10:10:51;;;;;;;15.37;14.07;;;;;;;16.25;81.02;94574.34;5075798;28;20957;-73
2023/10/20 10:13:19;;;;;;;14.50;13.17;;;;;;;16.01;81.26;94591.22;5076397;28;20478;-72
2023/10/20 10:15:47;;;;;;;13.77;12.60;;;;;;;15.93;81.77;94587.38;5077232;28;20960;-73
2023/10/20 10:18:17;;;;;;;14.10;13.00;;;;;;;15.93;81.65;94586.56;5074641;28;20491;-73
2023/10/20 10:20:47;;;;;;;13.10;12.10;;;;;;;15.89;82.19;94582.91;5075764;28;20992;-72
2023/10/20 10:23:15;;;;;;;13.57;12.27;;;;;;;15.84;82.03;94581.13;5075334;28;20538;-73
2023/10/20 10:25:43;;;;;;;13.87;12.47;;;;;;;15.92;82.18;94585.00;5074860;28;20466;-72
2023/10/20 10:28:15;;;;;;;12.60;11.37;;;;;;;15.88;81.16;94593.00;5071735;28;20473;-73
2023/10/20 10:30:43;;;;;;;11.90;10.90;;;;;;;16.20;81.18;94599.91;5079079;28;20538;-72
2023/10/20 10:33:11;;;;;;;12.20;11.20;;;;;;;16.17;81.10;94605.19;5073961;28;21300;-72
2023/10/20 10:35:39;;;;;;;10.60;9.80;;;;;;;16.12;81.10;94611.63;5082070;28;21226;-72
2023/10/20 10:38:09;;;;;;;11.70;10.80;;;;;;;16.25;81.31;94602.44;5067121;28;20543;-72
2023/10/20 10:40:44;;;;;;;10.63;9.83;;;;;;;16.32;80.88;94597.31;5074050;28;20454;-72
2023/10/20 10:43:16;;;;;;;9.93;9.03;;;;;;;16.49;79.68;94601.94;5076462;28;20580;-73
2023/10/20 10:45:43;;;;;;;10.50;9.50;;;;;;;16.60;80.35;94597.72;5076904;28;20647;-72
2023/10/20 10:48:11;;;;;;;9.27;8.13;;;;;;;16.85;78.62;94603.50;5059733;28;20597;-72
2023/10/20 10:50:40;;;;;;;8.70;7.87;;;;;;;16.83;79.33;94608.47;5070476;28;21048;-72
2023/10/20 10:53:07;;;;;;;8.70;7.97;;;;;;;16.79;79.34;94600.94;5067411;28;21095;-72
2023/10/20 10:55:35;;;;;;;7.50;6.90;;;;;;;16.89;79.07;94604.44;5069383;28;20505;-72
2023/10/20 10:58:03;;;;;;;8.10;7.50;;;;;;;16.86;79.58;94616.03;5069279;28;20593;-72
2023/10/20 11:00:32;;;;;;;7.13;6.53;;;;;;;16.87;79.60;94621.16;5070014;28;20472;-73
2023/10/20 11:03:00;;;;;;;6.70;6.20;;;;;;;16.85;79.51;94620.69;5074885;28;20544;-72
2023/10/20 11:05:28;;;;;;;6.37;5.87;;;;;;;16.81;80.11;94618.94;5072341;28;20454;-74
2023/10/20 11:07:56;;;;;;;5.50;5.00;;;;;;;16.80;79.92;94620.84;5074512;28;20485;-75
2023/10/20 11:10:26;;;;;;;5.43;4.90;;;;;;;16.75;80.00;94621.03;5066804;28;20454;-73
2023/10/20 11:12:53;;;;;;;5.10;4.60;;;;;;;16.87;79.78;94628.56;5076352;28;20879;-72
2023/10/20 11:15:20;;;;;;;4.50;4.10;;;;;;;17.00;79.66;94633.00;5075783;28;20540;-74
2023/10/20 11:17:50;;;;;;;4.37;4.03;;;;;;;16.94;79.68;94640.56;5064221;28;20565;-73
2023/10/20 11:20:18;;;;;;;4.23;3.93;;;;;;;16.86;79.42;94635.16;5068292;28;20562;-73
2023/10/20 11:22:45;;;;;;;3.80;3.40;;;;;;;16.78;80.27;94636.78;5072608;28;21037;-74
2023/10/20 11:25:19;;;;;;;3.23;3.00;;;;;;;16.87;79.67;94636.75;5065226;28;20557;-73
2023/10/20 11:27:53;;;;;;;2.93;2.73;;;;;;;16.92;77.95;94647.47;5075054;28;20548;-74
2023/10/20 11:30:24;;;;;;;2.70;2.50;;;;;;;17.00;77.40;94654.84;5075411;28;20491;-72
2023/10/20 11:32:54;;;;;;;2.90;2.40;;;;;;;17.04;76.99;94662.09;5082100;28;20577;-71
2023/10/20 11:35:22;;;;;;;2.93;2.60;;;;;;;17.06;77.44;94680.88;5079733;28;20679;-71
2023/10/20 11:37:49;;;;;;;2.17;1.90;;;;;;;17.12;77.38;94668.66;5081401;28;20461;-71
2023/10/20 11:40:16;;;;;;;2.53;2.07;;;;;;;17.24;76.32;94665.22;5081479;28;20445;-70
2023/10/20 11:42:43;;;;;;;1.90;1.80;;;;;;;17.22;75.85;94665.53;5080339;28;20450;-71